Terminal Aerodrome Forecast
Issued by NWS

Current Version | Previous Version | Graphics & Text | Print | Product List | Glossary On
Versions: 1 2 3 4 5 6 7 8 9 10 11 12 13 14
000
FTUS41 KRNK 252329
TAFLWB
TAF
KLWB 252329Z 2600/2624 24004KT P6SM BKN080
     FM260600 00000KT 4SM BR BKN100
      TEMPO 2610/2612 1SM BR OVC006
     FM261300 24004KT P6SM BKN150
     FM261800 25006KT P6SM VCTS BKN050CB
     FM262200 24005KT P6SM BKN100=

USA.gov is the U.S. government's official web portal to all federal, state and local government web resources and services.